This is the latest recevied weather packets stored in our database for station/object HS5BOG-13. If no packets are shown the sender has not sent any weather packets the latest 10 day(s).
| Time | Temp. | Humidity | Pressure | Rain* | Wind** | Luminosity | Snow |
|---|---|---|---|---|---|---|---|
| 1777919714 | 27.78° C | 84% | 995.1 hPa | - | - | - | - |
| 1777919108 | 27.78° C | 83% | 995.1 hPa | - | - | - | - |
| 1777918502 | 27.78° C | 84% | 995 hPa | - | - | - | - |
| 1777917897 | 27.78° C | 82% | 995 hPa | - | - | - | - |
| 1777917291 | 27.78° C | 84% | 994.9 hPa | - | - | - | - |
| 1777916686 | 27.78° C | 84% | 995 hPa | - | - | - | - |
| 1777916080 | 27.78° C | 82% | 994.9 hPa | - | - | - | - |
| 1777915474 | 27.78° C | 81% | 994.6 hPa | - | - | - | - |
| 1777914869 | 27.78° C | 81% | 994.1 hPa | - | - | - | - |
| 1777914263 | 27.78° C | 78% | 994.2 hPa | - | - | - | - |
| 1777913658 | 28.33° C | 79% | 994.4 hPa | - | - | - | - |
| 1777913052 | 27.78° C | 81% | 994.2 hPa | - | - | - | - |
| 1777912447 | 27.78° C | 80% | 994.5 hPa | - | - | - | - |
| 1777911841 | 28.33° C | 77% | 994.6 hPa | - | - | - | - |
| 1777911236 | 28.33° C | 76% | 994.6 hPa | - | - | - | - |
| 1777910630 | 28.33° C | 77% | 995.1 hPa | - | - | - | - |
| 1777910024 | 28.33° C | 77% | 995.4 hPa | - | - | - | - |
| 1777909419 | 28.33° C | 74% | 995.4 hPa | - | - | - | - |
| 1777908813 | 28.33° C | 73% | 995.7 hPa | - | - | - | - |
| 1777907372 | 28.89° C | 69% | 995.3 hPa | - | - | - | - |
| 1777906766 | 28.89° C | 71% | 995 hPa | - | - | - | - |
| 1777906161 | 28.33° C | 67% | 994.9 hPa | - | - | - | - |
| 1777905555 | 28.33° C | 66% | 994.6 hPa | - | - | - | - |
| 1777900113 | 32.22° C | 48% | 993.7 hPa | - | - | - | - |
| 1777899508 | 32.22° C | 45% | 993.6 hPa | - | - | - | - |
* Rain since midnight (hover to see other rain measurements)
** Current wind speed in m/s (hover to see current wind gust speed)